createdAt,value
2022-11-23T00:03:07.504Z,2.90
2022-11-23T00:07:19.476Z,3.00
2022-11-23T00:11:35.316Z,2.22
2022-11-23T00:15:39.777Z,2.92
2022-11-23T00:19:46.050Z,2.60
2022-11-23T00:23:52.053Z,3.05
2022-11-23T00:27:59.746Z,2.63
2022-11-23T00:32:09.988Z,2.90
2022-11-23T00:36:20.321Z,2.25
2022-11-23T00:40:46.781Z,2.38
2022-11-23T00:44:57.588Z,2.55
2022-11-23T00:49:15.714Z,2.55
2022-11-23T00:53:24.631Z,2.17
2022-11-23T00:57:28.803Z,2.33
2022-11-23T01:01:46.166Z,2.05
2022-11-23T01:05:52.308Z,2.50
2022-11-23T01:10:04.551Z,2.13
2022-11-23T01:14:24.311Z,2.65
2022-11-23T01:18:59.128Z,2.53
2022-11-23T01:23:12.460Z,2.95
2022-11-23T01:31:47.025Z,2.17
2022-11-23T01:35:59.314Z,2.53
2022-11-23T01:44:55.267Z,2.90
2022-11-23T01:49:11.231Z,2.20
2022-11-23T01:53:23.624Z,2.58
2022-11-23T01:57:46.223Z,1.67
2022-11-23T02:02:03.313Z,2.08
2022-11-23T02:06:15.357Z,2.15
2022-11-23T02:10:23.917Z,1.67
2022-11-23T02:14:38.758Z,2.17
2022-11-23T02:18:54.259Z,2.10
2022-11-23T02:23:06.403Z,2.10
2022-11-23T02:27:12.523Z,4.05
2022-11-23T02:31:20.718Z,2.03
2022-11-23T02:35:24.861Z,2.45
2022-11-23T02:39:38.868Z,1.98
2022-11-23T02:43:46.016Z,2.28
2022-11-23T02:47:54.707Z,2.20
2022-11-23T02:51:56.531Z,2.03
2022-11-23T03:00:16.415Z,2.08
2022-11-23T03:04:27.668Z,1.63
2022-11-23T03:08:32.196Z,2.88
2022-11-23T03:12:41.801Z,1.52
2022-11-23T03:16:57.837Z,2.35
2022-11-23T03:21:16.859Z,2.38
2022-11-23T03:25:21.552Z,1.83
2022-11-23T03:29:28.251Z,2.17
2022-11-23T03:33:35.065Z,1.67
2022-11-23T03:37:41.451Z,1.90
2022-11-23T03:41:43.448Z,1.55
2022-11-23T03:45:48.402Z,1.58
2022-11-23T03:49:50.247Z,2.00
2022-11-23T03:53:57.114Z,2.20
2022-11-23T03:58:08.202Z,1.83
2022-11-23T04:02:12.599Z,1.55
2022-11-23T04:06:17.473Z,1.73
2022-11-23T04:10:26.489Z,1.98
2022-11-23T04:14:39.969Z,2.17
2022-11-23T04:18:45.306Z,1.85
2022-11-23T04:22:48.823Z,2.53
2022-11-23T04:26:53.445Z,1.90
2022-11-23T04:30:58.777Z,1.95
2022-11-23T04:35:03.526Z,1.60
2022-11-23T04:39:19.830Z,1.83
2022-11-23T04:43:29.166Z,1.58
2022-11-23T04:47:39.308Z,1.50
2022-11-23T04:51:44.409Z,1.90
2022-11-23T04:56:01.980Z,1.33
2022-11-23T05:04:18.158Z,1.65
2022-11-23T05:08:23.822Z,2.80
2022-11-23T05:12:35.077Z,1.67
2022-11-23T05:16:47.214Z,1.60
2022-11-23T05:30:16.185Z,1.70
2022-11-23T05:39:20.019Z,1.63
2022-11-23T05:43:30.942Z,2.00
2022-11-23T05:47:35.465Z,1.48
2022-11-23T05:51:40.429Z,1.92
2022-11-23T05:55:55.023Z,1.40
2022-11-23T06:00:18.776Z,2.00
2022-11-23T06:04:20.763Z,1.40
2022-11-23T06:08:22.823Z,1.90
2022-11-23T06:12:35.755Z,1.33
2022-11-23T06:22:06.051Z,2.05
2022-11-23T06:31:23.011Z,3.22
2022-11-23T06:35:25.444Z,1.50
2022-11-23T06:39:34.242Z,1.60
2022-11-23T06:43:37.494Z,3.00
2022-11-23T06:47:47.348Z,1.23
2022-11-23T06:51:49.085Z,1.80
2022-11-23T06:55:53.038Z,1.60
2022-11-23T07:00:02.109Z,2.30
2022-11-23T07:04:05.652Z,2.22
2022-11-23T07:08:15.011Z,2.30
2022-11-23T07:12:16.474Z,1.50
2022-11-23T07:16:20.801Z,3.22
2022-11-23T07:20:33.672Z,1.95
2022-11-23T07:24:41.462Z,2.25
2022-11-23T07:28:46.288Z,1.50
2022-11-23T07:32:47.810Z,1.70
2022-11-23T07:36:51.701Z,1.98
2022-11-23T07:40:53.189Z,1.52
2022-11-23T07:44:54.720Z,2.00
2022-11-23T07:49:01.256Z,1.48
2022-11-23T07:53:06.703Z,2.03
2022-11-23T07:57:12.971Z,1.67
2022-11-23T08:01:20.701Z,1.67
2022-11-23T08:05:22.434Z,2.03
2022-11-23T08:09:24.199Z,1.60
2022-11-23T08:13:38.804Z,1.17
2022-11-23T08:17:41.601Z,3.25
2022-11-23T08:21:56.459Z,2.65
2022-11-23T08:25:58.282Z,2.83
2022-11-23T08:30:17.265Z,2.97
2022-11-23T08:34:19.337Z,3.60
2022-11-23T08:38:24.095Z,2.30
2022-11-23T08:42:27.777Z,3.35
2022-11-23T08:46:38.619Z,1.77
2022-11-23T08:50:40.664Z,1.92
2022-11-23T08:54:47.794Z,1.70
2022-11-23T08:58:54.470Z,1.95
2022-11-23T09:03:03.779Z,1.63
2022-11-23T09:07:05.722Z,1.98
2022-11-23T09:11:26.517Z,1.10
2022-11-23T09:15:31.880Z,1.48
2022-11-23T09:19:35.877Z,1.92
2022-11-23T09:23:42.875Z,1.98
2022-11-23T09:27:48.380Z,1.80
2022-11-23T09:31:53.533Z,1.73
2022-11-23T09:35:59.979Z,1.77
2022-11-23T09:40:23.619Z,1.40
2022-11-23T09:44:52.348Z,4.30
2022-11-23T09:49:12.206Z,1.88
2022-11-23T09:53:29.430Z,1.60
2022-11-23T09:57:32.845Z,1.40
2022-11-23T10:01:34.606Z,1.27
2022-11-23T10:05:38.654Z,1.40
2022-11-23T10:10:06.434Z,1.48
2022-11-23T10:14:32.125Z,1.90
2022-11-23T10:18:42.712Z,1.25
2022-11-23T10:22:59.750Z,1.60
2022-11-23T10:27:01.518Z,1.70
2022-11-23T10:31:26.089Z,1.40
2022-11-23T10:35:33.526Z,1.67
2022-11-23T10:39:34.915Z,2.30
2022-11-23T10:43:44.546Z,1.75
2022-11-23T10:47:59.348Z,1.55
2022-11-23T10:52:29.420Z,1.00
2022-11-23T10:56:31.737Z,2.95
2022-11-23T11:00:33.900Z,1.38
2022-11-23T11:04:36.153Z,1.70
2022-11-23T11:08:52.186Z,1.50
2022-11-23T11:12:57.545Z,1.30
2022-11-23T11:17:06.324Z,1.63
2022-11-23T11:21:30.541Z,1.48
2022-11-23T11:25:47.000Z,1.60
2022-11-23T11:29:55.110Z,1.63
2022-11-23T11:34:13.297Z,1.25
2022-11-23T11:38:30.205Z,1.60
2022-11-23T11:42:53.758Z,1.70
2022-11-23T11:47:03.465Z,1.10
2022-11-23T11:51:12.119Z,1.10
2022-11-23T11:55:33.125Z,1.48
2022-11-23T11:59:53.244Z,1.88
2022-11-23T12:09:39.533Z,1.73
2022-11-23T12:13:58.261Z,1.52
2022-11-23T12:18:29.292Z,1.50
2022-11-23T12:23:07.431Z,1.08
2022-11-23T12:32:55.941Z,1.23
2022-11-23T12:37:35.077Z,1.48
2022-11-23T12:41:54.170Z,1.23
2022-11-23T12:46:08.063Z,1.27
2022-11-23T12:50:45.539Z,1.00
2022-11-23T12:59:10.211Z,1.15
2022-11-23T13:03:48.899Z,1.02
2022-11-23T13:08:15.275Z,1.40
2022-11-23T13:12:38.083Z,1.00
2022-11-23T13:16:58.396Z,1.10
2022-11-23T13:21:04.855Z,1.27
2022-11-23T13:25:12.335Z,1.65
2022-11-23T13:30:01.847Z,2.35
2022-11-23T13:34:24.455Z,1.20
2022-11-23T13:38:27.902Z,1.20
2022-11-23T13:42:31.642Z,0.90
2022-11-23T13:46:36.325Z,1.42
2022-11-23T13:50:40.307Z,0.95
2022-11-23T13:54:41.773Z,1.33
2022-11-23T13:58:52.531Z,1.35
2022-11-23T14:03:32.478Z,1.88
2022-11-23T14:07:43.283Z,2.13
2022-11-23T14:12:03.749Z,1.13
2022-11-23T14:16:06.435Z,1.42
2022-11-23T14:20:31.961Z,0.70
2022-11-23T14:24:44.075Z,1.20
2022-11-23T14:29:06.668Z,0.88
2022-11-23T14:33:22.981Z,1.15
2022-11-23T14:37:43.189Z,0.95
2022-11-23T14:41:46.844Z,1.20
2022-11-23T14:45:48.499Z,0.98
2022-11-23T14:49:51.144Z,1.00
2022-11-23T14:53:58.027Z,1.13
2022-11-23T14:58:04.359Z,1.10
2022-11-23T15:02:14.892Z,0.70
2022-11-23T15:06:17.494Z,0.88
2022-11-23T15:25:24.061Z,2.15
2022-11-23T15:30:04.093Z,2.22
2022-11-23T15:34:41.338Z,2.58
2022-11-23T15:38:45.920Z,1.80
2022-11-23T15:42:51.627Z,1.17
2022-11-23T15:56:32.344Z,1.02
2022-11-23T16:01:10.359Z,1.85
2022-11-23T16:05:18.172Z,1.58
2022-11-23T16:18:45.088Z,2.63
2022-11-23T16:22:58.933Z,2.50
2022-11-23T16:27:23.084Z,1.63
2022-11-23T16:32:07.387Z,2.15
2022-11-23T16:36:26.139Z,4.43
2022-11-23T16:40:31.245Z,3.15
2022-11-23T16:44:44.077Z,2.00
2022-11-23T16:48:46.035Z,1.70
2022-11-23T16:52:47.508Z,2.83
2022-11-23T16:56:49.026Z,2.53
2022-11-23T17:00:50.595Z,2.80
2022-11-23T17:04:52.349Z,3.15
2022-11-23T17:09:04.743Z,1.77
2022-11-23T17:13:30.737Z,1.20
2022-11-23T17:17:34.076Z,1.77
2022-11-23T17:26:07.224Z,1.40
2022-11-23T17:30:37.303Z,1.23
2022-11-23T17:43:56.426Z,1.30
2022-11-23T17:48:05.399Z,1.60
2022-11-23T18:01:55.894Z,1.80
2022-11-23T18:06:01.129Z,1.88
2022-11-23T18:10:03.198Z,2.20
2022-11-23T18:14:04.857Z,2.10
2022-11-23T18:18:11.960Z,2.05
2022-11-23T18:22:13.567Z,2.30
2022-11-23T18:26:18.380Z,2.40
2022-11-23T18:30:21.252Z,1.90
2022-11-23T18:34:23.040Z,2.47
2022-11-23T18:38:24.848Z,3.28
2022-11-23T18:42:29.698Z,3.05
2022-11-23T18:46:33.066Z,2.33
2022-11-23T18:50:35.870Z,3.00
2022-11-23T18:54:46.853Z,2.45
2022-11-23T18:58:48.585Z,2.88
2022-11-23T19:02:54.401Z,2.90
2022-11-23T19:06:55.868Z,3.17
2022-11-23T19:11:06.417Z,2.47
2022-11-23T19:15:11.295Z,2.85
2022-11-23T19:19:12.964Z,3.40
2022-11-23T19:23:14.612Z,3.00
2022-11-23T19:27:16.181Z,3.33
2022-11-23T19:31:20.066Z,3.20
2022-11-23T19:35:21.896Z,3.85
2022-11-23T19:39:23.470Z,3.83
2022-11-23T19:43:25.114Z,4.07
2022-11-23T19:47:29.283Z,5.57
2022-11-23T19:51:30.710Z,4.43
2022-11-23T19:55:32.289Z,3.72
2022-11-23T19:59:34.194Z,5.53
2022-11-23T20:03:38.857Z,3.67
2022-11-23T20:07:40.525Z,4.53
2022-11-23T20:11:44.835Z,4.00
2022-11-23T20:15:49.680Z,6.03
2022-11-23T20:19:51.382Z,3.83
2022-11-23T20:24:04.727Z,4.68
2022-11-23T20:28:08.276Z,2.95
2022-11-23T20:32:12.479Z,3.13
2022-11-23T20:36:25.184Z,2.75
2022-11-23T20:40:27.249Z,2.15
2022-11-23T20:44:33.647Z,2.42
2022-11-23T20:48:35.856Z,1.93
2022-11-23T20:52:37.397Z,3.42
2022-11-23T20:56:39.466Z,3.45
2022-11-23T21:00:41.069Z,3.75
2022-11-23T21:04:42.454Z,4.65
2022-11-23T21:08:45.932Z,2.78
2022-11-23T21:13:05.844Z,3.35
2022-11-23T21:17:07.314Z,4.07
2022-11-23T21:21:08.703Z,2.88
2022-11-23T21:25:10.273Z,1.90
2022-11-23T21:29:11.767Z,2.50
2022-11-23T21:33:13.167Z,3.50
2022-11-23T21:37:14.506Z,3.13
2022-11-23T21:41:17.988Z,2.75
2022-11-23T21:45:19.325Z,2.20
2022-11-23T21:49:20.794Z,1.80
2022-11-23T21:53:22.199Z,3.38
2022-11-23T21:57:23.594Z,2.70
2022-11-23T22:01:27.513Z,2.03
2022-11-23T22:05:29.244Z,2.30
2022-11-23T22:09:33.499Z,2.58
2022-11-23T22:13:37.167Z,1.83
2022-11-23T22:17:39.157Z,2.10
2022-11-23T22:21:42.047Z,2.33
2022-11-23T22:25:48.075Z,2.55
2022-11-23T22:29:50.132Z,2.28
2022-11-23T22:33:54.268Z,2.15
2022-11-23T22:37:55.639Z,2.10
2022-11-23T22:41:57.058Z,2.03
2022-11-23T22:46:06.563Z,1.92
2022-11-23T22:50:08.595Z,2.25
2022-11-23T22:54:10.472Z,3.03
2022-11-23T22:58:11.852Z,2.08
2022-11-23T23:02:13.314Z,2.10
2022-11-23T23:06:17.107Z,2.03
2022-11-23T23:10:18.471Z,2.30
2022-11-23T23:14:20.051Z,3.35
2022-11-23T23:18:21.415Z,2.33
2022-11-23T23:22:22.862Z,3.13
2022-11-23T23:26:26.119Z,2.10
2022-11-23T23:30:27.706Z,2.13
2022-11-23T23:34:29.298Z,1.60
2022-11-23T23:38:31.259Z,2.05
2022-11-23T23:42:35.251Z,2.22
2022-11-23T23:46:36.723Z,2.83
2022-11-23T23:50:38.095Z,1.70
2022-11-23T23:54:39.457Z,2.55
2022-11-23T23:58:41.462Z,2.08
